PHKO

Ellison Onizuka Kona International at Keahole Airport

Kailua/Kona, Hawaii, USA
PHKO 211723Z 2117/2218 VRB05KT P6SM SCT030 BKN060 FM212000 22011KT P6SM SCT025 BKN050 FM220600 11006KT P6SM SCT025 BKN050
Issued Valid From Valid To
Jun-21 @ 17:23 UTC
(47 minutes ago)
Jun-21 @ 17:00 UTC
(an hour ago)
Jun-22 @ 18:00 UTC
(in 24 hours)
Jun-21 @ 17:00 to Jun-21 @ 20:00
PHKO 211723Z 2117/2218 VRB05KT P6SM SCT030 BKN060
Wind Visibility Clouds
Variable at 5 knots Greater than 6 miles
  • Scattered at 3,000' AGL
  • Broken at 6,000' AGL
From Jun-21 @ 20:00 to Jun-22 @ 06:00
FM212000 22011KT P6SM SCT025 BKN050
Wind Visibility Clouds
220° at 11 knots Greater than 6 miles
  • Scattered at 2,500' AGL
  • Broken at 5,000' AGL
From Jun-22 @ 06:00 to Jun-22 @ 18:00
FM220600 11006KT P6SM SCT025 BKN050
Wind Visibility Clouds
110° at 6 knots Greater than 6 miles
  • Scattered at 2,500' AGL
  • Broken at 5,000' AGL
PHKO 211723Z 2117/2218 VRB05KT P6SM SCT030 BKN060 FM212000 22011KT P6SM SCT025 BKN050 FM220600 11006KT P6SM SCT025 BKN050
Issued Jun-21 @ 17:23 UTC
(47 minutes ago)
Valid From Jun-21 @ 17:00 UTC
(an hour ago)
Valid To Jun-22 @ 18:00 UTC
(in 24 hours)
Jun-21 @ 17:00 - Jun-21 @ 20:00
Wind Visibility
Variable at 5 knots Greater than 6 miles
Clouds
  • Scattered at 3,000' AGL
  • Broken at 6,000' AGL
From Jun-21 @ 20:00 - Jun-22 @ 06:00
Wind Visibility
220° at 11 knots Greater than 6 miles
Clouds
  • Scattered at 2,500' AGL
  • Broken at 5,000' AGL
From Jun-22 @ 06:00 - Jun-22 @ 18:00
Wind Visibility
110° at 6 knots Greater than 6 miles
Clouds
  • Scattered at 2,500' AGL
  • Broken at 5,000' AGL